sensor_id;sensor_type;location;lat;lon;timestamp;P1;durP1;ratioP1;P2;durP2;ratioP2
56567;SDS011;42456;49.956;20.004;2022-11-14T00:00:40;19.62;;;9.35;;
56567;SDS011;42456;49.956;20.004;2022-11-14T00:03:07;20.40;;;9.18;;
56567;SDS011;42456;49.956;20.004;2022-11-14T00:05:38;19.35;;;9.38;;
56567;SDS011;42456;49.956;20.004;2022-11-14T00:08:10;18.30;;;9.18;;
56567;SDS011;42456;49.956;20.004;2022-11-14T00:10:41;18.37;;;8.83;;
56567;SDS011;42456;49.956;20.004;2022-11-14T00:13:10;19.02;;;9.13;;
56567;SDS011;42456;49.956;20.004;2022-11-14T00:15:36;16.17;;;8.43;;
56567;SDS011;42456;49.956;20.004;2022-11-14T00:18:02;17.52;;;8.95;;
56567;SDS011;42456;49.956;20.004;2022-11-14T00:20:29;19.80;;;9.55;;
56567;SDS011;42456;49.956;20.004;2022-11-14T00:22:56;21.35;;;9.65;;
56567;SDS011;42456;49.956;20.004;2022-11-14T00:25:23;15.65;;;8.28;;
56567;SDS011;42456;49.956;20.004;2022-11-14T00:27:49;17.67;;;8.38;;
56567;SDS011;42456;49.956;20.004;2022-11-14T00:30:15;18.17;;;8.65;;
56567;SDS011;42456;49.956;20.004;2022-11-14T00:32:42;17.27;;;8.88;;
56567;SDS011;42456;49.956;20.004;2022-11-14T00:35:08;18.15;;;9.15;;
56567;SDS011;42456;49.956;20.004;2022-11-14T00:37:34;18.02;;;9.53;;
56567;SDS011;42456;49.956;20.004;2022-11-14T00:40:01;18.20;;;9.35;;
56567;SDS011;42456;49.956;20.004;2022-11-14T00:42:27;19.70;;;9.13;;
56567;SDS011;42456;49.956;20.004;2022-11-14T00:44:53;17.50;;;8.93;;
56567;SDS011;42456;49.956;20.004;2022-11-14T00:47:20;19.27;;;9.58;;
56567;SDS011;42456;49.956;20.004;2022-11-14T00:49:46;20.00;;;9.78;;
56567;SDS011;42456;49.956;20.004;2022-11-14T00:52:13;19.75;;;9.73;;
56567;SDS011;42456;49.956;20.004;2022-11-14T00:54:39;20.23;;;9.75;;
56567;SDS011;42456;49.956;20.004;2022-11-14T00:57:05;21.20;;;10.38;;
56567;SDS011;42456;49.956;20.004;2022-11-14T00:59:31;21.07;;;10.70;;
56567;SDS011;42456;49.956;20.004;2022-11-14T01:01:58;17.87;;;8.30;;
56567;SDS011;42456;49.956;20.004;2022-11-14T01:04:24;19.05;;;9.23;;
56567;SDS011;42456;49.956;20.004;2022-11-14T01:06:50;18.77;;;9.43;;
56567;SDS011;42456;49.956;20.004;2022-11-14T01:09:17;20.40;;;9.30;;
56567;SDS011;42456;49.956;20.004;2022-11-14T01:11:43;19.05;;;9.50;;
56567;SDS011;42456;49.956;20.004;2022-11-14T01:14:09;18.05;;;8.80;;
56567;SDS011;42456;49.956;20.004;2022-11-14T01:16:36;15.40;;;8.05;;
56567;SDS011;42456;49.956;20.004;2022-11-14T01:19:02;17.05;;;8.35;;
56567;SDS011;42456;49.956;20.004;2022-11-14T01:21:29;17.32;;;8.45;;
56567;SDS011;42456;49.956;20.004;2022-11-14T01:23:56;19.45;;;9.05;;
56567;SDS011;42456;49.956;20.004;2022-11-14T01:26:22;17.15;;;8.35;;
56567;SDS011;42456;49.956;20.004;2022-11-14T01:28:48;16.52;;;7.75;;
56567;SDS011;42456;49.956;20.004;2022-11-14T01:31:16;19.77;;;8.98;;
56567;SDS011;42456;49.956;20.004;2022-11-14T01:33:49;18.10;;;8.78;;
56567;SDS011;42456;49.956;20.004;2022-11-14T01:36:14;16.15;;;7.78;;
56567;SDS011;42456;49.956;20.004;2022-11-14T01:38:41;16.67;;;8.00;;
56567;SDS011;42456;49.956;20.004;2022-11-14T01:41:08;16.48;;;7.92;;
56567;SDS011;42456;49.956;20.004;2022-11-14T01:43:40;17.77;;;7.97;;
56567;SDS011;42456;49.956;20.004;2022-11-14T01:46:14;18.48;;;8.90;;
56567;SDS011;42456;49.956;20.004;2022-11-14T01:49:01;16.60;;;8.15;;
56567;SDS011;42456;49.956;20.004;2022-11-14T01:51:33;17.05;;;8.53;;
56567;SDS011;42456;49.956;20.004;2022-11-14T01:54:25;16.45;;;8.18;;
56567;SDS011;42456;49.956;20.004;2022-11-14T01:57:02;17.63;;;9.03;;
56567;SDS011;42456;49.956;20.004;2022-11-14T01:59:35;17.30;;;8.73;;
56567;SDS011;42456;49.956;20.004;2022-11-14T02:02:05;17.95;;;8.88;;
56567;SDS011;42456;49.956;20.004;2022-11-14T02:04:38;18.85;;;9.03;;
56567;SDS011;42456;49.956;20.004;2022-11-14T02:07:11;14.75;;;7.05;;
56567;SDS011;42456;49.956;20.004;2022-11-14T02:09:40;16.50;;;8.28;;
56567;SDS011;42456;49.956;20.004;2022-11-14T02:12:12;18.65;;;9.18;;
56567;SDS011;42456;49.956;20.004;2022-11-14T02:14:41;17.50;;;7.85;;
56567;SDS011;42456;49.956;20.004;2022-11-14T02:17:10;16.25;;;8.60;;
56567;SDS011;42456;49.956;20.004;2022-11-14T02:20:20;13.22;;;7.10;;
56567;SDS011;42456;49.956;20.004;2022-11-14T02:22:18;17.07;;;8.43;;
56567;SDS011;42456;49.956;20.004;2022-11-14T02:24:44;16.77;;;8.13;;
56567;SDS011;42456;49.956;20.004;2022-11-14T02:27:11;19.57;;;8.48;;
56567;SDS011;42456;49.956;20.004;2022-11-14T02:29:39;18.48;;;8.98;;
56567;SDS011;42456;49.956;20.004;2022-11-14T02:32:06;17.07;;;8.40;;
56567;SDS011;42456;49.956;20.004;2022-11-14T02:34:32;15.30;;;6.62;;
56567;SDS011;42456;49.956;20.004;2022-11-14T02:36:59;16.42;;;8.08;;
56567;SDS011;42456;49.956;20.004;2022-11-14T02:39:25;19.05;;;7.55;;
56567;SDS011;42456;49.956;20.004;2022-11-14T02:41:52;16.02;;;7.60;;
56567;SDS011;42456;49.956;20.004;2022-11-14T02:44:18;16.67;;;7.90;;
56567;SDS011;42456;49.956;20.004;2022-11-14T02:46:44;15.35;;;7.35;;
56567;SDS011;42456;49.956;20.004;2022-11-14T02:49:11;13.98;;;6.83;;
56567;SDS011;42456;49.956;20.004;2022-11-14T02:51:37;14.00;;;6.33;;
56567;SDS011;42456;49.956;20.004;2022-11-14T02:54:05;16.52;;;7.50;;
56567;SDS011;42456;49.956;20.004;2022-11-14T02:56:32;12.47;;;6.58;;
56567;SDS011;42456;49.956;20.004;2022-11-14T02:58:58;15.98;;;7.37;;
56567;SDS011;42456;49.956;20.004;2022-11-14T03:01:24;14.45;;;7.17;;
56567;SDS011;42456;49.956;20.004;2022-11-14T03:03:51;16.82;;;8.08;;
56567;SDS011;42456;49.956;20.004;2022-11-14T03:06:17;16.52;;;8.48;;
56567;SDS011;42456;49.956;20.004;2022-11-14T03:08:43;15.80;;;7.30;;
56567;SDS011;42456;49.956;20.004;2022-11-14T03:11:10;16.50;;;8.00;;
56567;SDS011;42456;49.956;20.004;2022-11-14T03:13:36;18.12;;;8.73;;
56567;SDS011;42456;49.956;20.004;2022-11-14T03:16:06;14.87;;;6.95;;
56567;SDS011;42456;49.956;20.004;2022-11-14T03:18:34;16.87;;;7.97;;
56567;SDS011;42456;49.956;20.004;2022-11-14T03:21:04;18.70;;;9.08;;
56567;SDS011;42456;49.956;20.004;2022-11-14T03:23:32;17.73;;;8.15;;
56567;SDS011;42456;49.956;20.004;2022-11-14T03:25:59;16.40;;;7.50;;
56567;SDS011;42456;49.956;20.004;2022-11-14T03:28:27;16.07;;;8.00;;
56567;SDS011;42456;49.956;20.004;2022-11-14T03:30:53;20.08;;;10.13;;
56567;SDS011;42456;49.956;20.004;2022-11-14T03:33:19;18.12;;;8.35;;
56567;SDS011;42456;49.956;20.004;2022-11-14T03:35:47;15.80;;;7.40;;
56567;SDS011;42456;49.956;20.004;2022-11-14T03:38:15;18.37;;;8.20;;
56567;SDS011;42456;49.956;20.004;2022-11-14T03:40:42;18.77;;;8.70;;
56567;SDS011;42456;49.956;20.004;2022-11-14T03:43:09;18.87;;;9.43;;
56567;SDS011;42456;49.956;20.004;2022-11-14T03:45:36;18.52;;;8.88;;
56567;SDS011;42456;49.956;20.004;2022-11-14T03:48:03;17.35;;;8.30;;
56567;SDS011;42456;49.956;20.004;2022-11-14T03:50:31;18.52;;;8.70;;
56567;SDS011;42456;49.956;20.004;2022-11-14T03:52:57;12.77;;;5.63;;
56567;SDS011;42456;49.956;20.004;2022-11-14T03:55:23;18.20;;;8.50;;
56567;SDS011;42456;49.956;20.004;2022-11-14T03:57:50;18.20;;;8.08;;
56567;SDS011;42456;49.956;20.004;2022-11-14T04:00:16;18.17;;;8.53;;
56567;SDS011;42456;49.956;20.004;2022-11-14T04:02:43;17.80;;;7.85;;
56567;SDS011;42456;49.956;20.004;2022-11-14T04:05:10;17.73;;;9.05;;
56567;SDS011;42456;49.956;20.004;2022-11-14T04:07:36;18.40;;;9.18;;
56567;SDS011;42456;49.956;20.004;2022-11-14T04:10:03;21.37;;;9.68;;
56567;SDS011;42456;49.956;20.004;2022-11-14T04:12:30;17.25;;;8.13;;
56567;SDS011;42456;49.956;20.004;2022-11-14T04:14:57;15.38;;;7.55;;
56567;SDS011;42456;49.956;20.004;2022-11-14T04:17:23;14.07;;;6.87;;
56567;SDS011;42456;49.956;20.004;2022-11-14T04:19:49;16.83;;;7.93;;
56567;SDS011;42456;49.956;20.004;2022-11-14T04:22:16;16.02;;;8.43;;
56567;SDS011;42456;49.956;20.004;2022-11-14T04:24:42;17.95;;;8.45;;
56567;SDS011;42456;49.956;20.004;2022-11-14T04:27:08;15.83;;;6.83;;
56567;SDS011;42456;49.956;20.004;2022-11-14T04:29:35;16.00;;;8.08;;
56567;SDS011;42456;49.956;20.004;2022-11-14T04:32:01;17.67;;;7.45;;
56567;SDS011;42456;49.956;20.004;2022-11-14T04:34:28;16.50;;;7.58;;
56567;SDS011;42456;49.956;20.004;2022-11-14T04:36:54;16.50;;;8.00;;
56567;SDS011;42456;49.956;20.004;2022-11-14T04:39:20;14.95;;;7.85;;
56567;SDS011;42456;49.956;20.004;2022-11-14T04:41:47;14.93;;;7.70;;
56567;SDS011;42456;49.956;20.004;2022-11-14T04:44:13;14.35;;;7.62;;
56567;SDS011;42456;49.956;20.004;2022-11-14T04:46:39;15.05;;;6.92;;
56567;SDS011;42456;49.956;20.004;2022-11-14T04:49:06;15.83;;;7.90;;
56567;SDS011;42456;49.956;20.004;2022-11-14T04:51:32;12.53;;;6.90;;
56567;SDS011;42456;49.956;20.004;2022-11-14T04:53:59;16.35;;;7.62;;
56567;SDS011;42456;49.956;20.004;2022-11-14T04:56:25;17.65;;;7.83;;
56567;SDS011;42456;49.956;20.004;2022-11-14T04:58:53;12.88;;;6.05;;
56567;SDS011;42456;49.956;20.004;2022-11-14T05:01:19;15.32;;;7.58;;
56567;SDS011;42456;49.956;20.004;2022-11-14T05:03:46;14.45;;;7.20;;
56567;SDS011;42456;49.956;20.004;2022-11-14T05:06:12;15.50;;;7.62;;
56567;SDS011;42456;49.956;20.004;2022-11-14T05:08:38;13.80;;;7.15;;
56567;SDS011;42456;49.956;20.004;2022-11-14T05:11:05;14.93;;;7.08;;
56567;SDS011;42456;49.956;20.004;2022-11-14T05:13:31;12.90;;;6.67;;
56567;SDS011;42456;49.956;20.004;2022-11-14T05:15:58;16.48;;;8.05;;
56567;SDS011;42456;49.956;20.004;2022-11-14T05:18:25;15.40;;;7.22;;
56567;SDS011;42456;49.956;20.004;2022-11-14T05:20:52;12.68;;;6.12;;
56567;SDS011;42456;49.956;20.004;2022-11-14T05:23:19;14.38;;;6.90;;
56567;SDS011;42456;49.956;20.004;2022-11-14T05:25:57;13.90;;;7.47;;
56567;SDS011;42456;49.956;20.004;2022-11-14T05:28:31;15.50;;;7.73;;
56567;SDS011;42456;49.956;20.004;2022-11-14T05:31:05;15.70;;;7.00;;
56567;SDS011;42456;49.956;20.004;2022-11-14T05:33:34;14.63;;;7.47;;
56567;SDS011;42456;49.956;20.004;2022-11-14T05:36:04;15.10;;;7.67;;
56567;SDS011;42456;49.956;20.004;2022-11-14T05:38:33;16.67;;;7.90;;
56567;SDS011;42456;49.956;20.004;2022-11-14T05:41:09;14.77;;;7.27;;
56567;SDS011;42456;49.956;20.004;2022-11-14T05:43:33;16.85;;;7.58;;
56567;SDS011;42456;49.956;20.004;2022-11-14T05:46:00;14.60;;;7.93;;
56567;SDS011;42456;49.956;20.004;2022-11-14T05:48:28;15.83;;;7.37;;
56567;SDS011;42456;49.956;20.004;2022-11-14T05:50:55;13.38;;;6.87;;
56567;SDS011;42456;49.956;20.004;2022-11-14T05:53:24;11.85;;;6.10;;
56567;SDS011;42456;49.956;20.004;2022-11-14T05:55:52;14.25;;;7.42;;
56567;SDS011;42456;49.956;20.004;2022-11-14T05:58:18;15.32;;;7.20;;
56567;SDS011;42456;49.956;20.004;2022-11-14T06:00:44;14.00;;;6.53;;
56567;SDS011;42456;49.956;20.004;2022-11-14T06:03:11;14.78;;;7.65;;
56567;SDS011;42456;49.956;20.004;2022-11-14T06:05:39;16.30;;;7.17;;
56567;SDS011;42456;49.956;20.004;2022-11-14T06:08:06;17.33;;;8.63;;
56567;SDS011;42456;49.956;20.004;2022-11-14T06:10:33;13.80;;;6.53;;
56567;SDS011;42456;49.956;20.004;2022-11-14T06:13:00;14.58;;;7.05;;
56567;SDS011;42456;49.956;20.004;2022-11-14T06:15:27;14.43;;;7.83;;
56567;SDS011;42456;49.956;20.004;2022-11-14T06:17:53;15.18;;;7.25;;
56567;SDS011;42456;49.956;20.004;2022-11-14T06:20:20;15.98;;;8.18;;
56567;SDS011;42456;49.956;20.004;2022-11-14T06:22:46;16.07;;;8.13;;
56567;SDS011;42456;49.956;20.004;2022-11-14T06:25:12;16.97;;;8.15;;
56567;SDS011;42456;49.956;20.004;2022-11-14T06:27:38;17.23;;;8.57;;
56567;SDS011;42456;49.956;20.004;2022-11-14T06:30:05;15.53;;;7.83;;
56567;SDS011;42456;49.956;20.004;2022-11-14T06:32:32;15.53;;;8.93;;
56567;SDS011;42456;49.956;20.004;2022-11-14T06:34:59;16.30;;;7.97;;
56567;SDS011;42456;49.956;20.004;2022-11-14T06:37:25;15.88;;;7.83;;
56567;SDS011;42456;49.956;20.004;2022-11-14T06:39:51;15.78;;;7.97;;
56567;SDS011;42456;49.956;20.004;2022-11-14T06:42:18;16.42;;;8.38;;
56567;SDS011;42456;49.956;20.004;2022-11-14T06:44:44;15.08;;;7.97;;
56567;SDS011;42456;49.956;20.004;2022-11-14T06:47:10;15.05;;;8.03;;
56567;SDS011;42456;49.956;20.004;2022-11-14T06:49:36;14.73;;;7.37;;
56567;SDS011;42456;49.956;20.004;2022-11-14T06:52:03;15.40;;;7.55;;
56567;SDS011;42456;49.956;20.004;2022-11-14T06:54:29;17.12;;;8.65;;
56567;SDS011;42456;49.956;20.004;2022-11-14T06:56:56;17.82;;;8.08;;
56567;SDS011;42456;49.956;20.004;2022-11-14T06:59:22;15.85;;;7.60;;
56567;SDS011;42456;49.956;20.004;2022-11-14T07:01:48;14.50;;;7.70;;
56567;SDS011;42456;49.956;20.004;2022-11-14T07:04:15;14.50;;;7.35;;
56567;SDS011;42456;49.956;20.004;2022-11-14T07:06:41;19.77;;;9.93;;
56567;SDS011;42456;49.956;20.004;2022-11-14T07:09:08;15.25;;;7.50;;
56567;SDS011;42456;49.956;20.004;2022-11-14T07:11:35;15.32;;;7.83;;
56567;SDS011;42456;49.956;20.004;2022-11-14T07:14:02;15.73;;;7.63;;
56567;SDS011;42456;49.956;20.004;2022-11-14T07:16:29;13.72;;;6.65;;
56567;SDS011;42456;49.956;20.004;2022-11-14T07:19:00;12.85;;;6.75;;
56567;SDS011;42456;49.956;20.004;2022-11-14T07:21:29;17.32;;;8.73;;
56567;SDS011;42456;49.956;20.004;2022-11-14T07:23:56;16.65;;;8.50;;
56567;SDS011;42456;49.956;20.004;2022-11-14T07:26:23;14.73;;;7.72;;
56567;SDS011;42456;49.956;20.004;2022-11-14T07:28:49;17.17;;;8.28;;
56567;SDS011;42456;49.956;20.004;2022-11-14T07:31:16;15.57;;;7.67;;
56567;SDS011;42456;49.956;20.004;2022-11-14T07:33:45;17.37;;;8.47;;
56567;SDS011;42456;49.956;20.004;2022-11-14T07:36:12;15.90;;;8.68;;
56567;SDS011;42456;49.956;20.004;2022-11-14T07:38:40;17.17;;;8.55;;
56567;SDS011;42456;49.956;20.004;2022-11-14T07:41:08;15.15;;;8.35;;
56567;SDS011;42456;49.956;20.004;2022-11-14T07:43:40;17.37;;;9.13;;
56567;SDS011;42456;49.956;20.004;2022-11-14T07:46:09;18.27;;;10.15;;
56567;SDS011;42456;49.956;20.004;2022-11-14T07:48:41;17.65;;;9.60;;
56567;SDS011;42456;49.956;20.004;2022-11-14T07:51:09;19.70;;;9.10;;
56567;SDS011;42456;49.956;20.004;2022-11-14T07:53:42;17.77;;;8.55;;
56567;SDS011;42456;49.956;20.004;2022-11-14T07:56:08;18.05;;;9.45;;
56567;SDS011;42456;49.956;20.004;2022-11-14T07:58:36;18.50;;;9.33;;
56567;SDS011;42456;49.956;20.004;2022-11-14T08:01:05;16.45;;;8.75;;
56567;SDS011;42456;49.956;20.004;2022-11-14T08:03:33;16.25;;;8.23;;
56567;SDS011;42456;49.956;20.004;2022-11-14T08:06:04;17.87;;;9.70;;
56567;SDS011;42456;49.956;20.004;2022-11-14T08:08:31;16.27;;;9.13;;
56567;SDS011;42456;49.956;20.004;2022-11-14T08:11:01;18.02;;;9.55;;
56567;SDS011;42456;49.956;20.004;2022-11-14T08:13:27;16.30;;;8.43;;
56567;SDS011;42456;49.956;20.004;2022-11-14T08:15:54;16.55;;;8.43;;
56567;SDS011;42456;49.956;20.004;2022-11-14T08:18:20;18.62;;;8.80;;
56567;SDS011;42456;49.956;20.004;2022-11-14T08:20:47;18.00;;;9.65;;
56567;SDS011;42456;49.956;20.004;2022-11-14T08:23:13;14.83;;;8.38;;
56567;SDS011;42456;49.956;20.004;2022-11-14T08:25:40;20.65;;;9.33;;
56567;SDS011;42456;49.956;20.004;2022-11-14T08:28:06;15.83;;;8.63;;
56567;SDS011;42456;49.956;20.004;2022-11-14T08:30:33;17.17;;;8.68;;
56567;SDS011;42456;49.956;20.004;2022-11-14T08:33:00;16.55;;;8.90;;
56567;SDS011;42456;49.956;20.004;2022-11-14T08:35:29;14.78;;;7.72;;
56567;SDS011;42456;49.956;20.004;2022-11-14T08:37:55;17.27;;;8.28;;
56567;SDS011;42456;49.956;20.004;2022-11-14T08:40:22;15.28;;;8.25;;
56567;SDS011;42456;49.956;20.004;2022-11-14T08:42:48;16.50;;;9.30;;
56567;SDS011;42456;49.956;20.004;2022-11-14T08:45:14;15.43;;;9.00;;
56567;SDS011;42456;49.956;20.004;2022-11-14T08:47:41;18.07;;;9.58;;
56567;SDS011;42456;49.956;20.004;2022-11-14T08:50:07;18.90;;;9.15;;
56567;SDS011;42456;49.956;20.004;2022-11-14T08:52:34;17.35;;;8.65;;
56567;SDS011;42456;49.956;20.004;2022-11-14T08:55:00;18.45;;;9.78;;
56567;SDS011;42456;49.956;20.004;2022-11-14T08:57:26;19.35;;;9.95;;
56567;SDS011;42456;49.956;20.004;2022-11-14T08:59:53;18.00;;;9.40;;
56567;SDS011;42456;49.956;20.004;2022-11-14T09:02:20;17.00;;;8.85;;
56567;SDS011;42456;49.956;20.004;2022-11-14T09:04:46;16.73;;;9.15;;
56567;SDS011;42456;49.956;20.004;2022-11-14T09:07:12;14.75;;;7.67;;
56567;SDS011;42456;49.956;20.004;2022-11-14T09:09:38;17.30;;;8.90;;
56567;SDS011;42456;49.956;20.004;2022-11-14T09:12:05;17.05;;;8.45;;
56567;SDS011;42456;49.956;20.004;2022-11-14T09:14:31;16.32;;;8.55;;
56567;SDS011;42456;49.956;20.004;2022-11-14T09:16:57;17.75;;;8.93;;
56567;SDS011;42456;49.956;20.004;2022-11-14T09:19:23;19.48;;;10.23;;
56567;SDS011;42456;49.956;20.004;2022-11-14T09:21:50;19.45;;;10.35;;
56567;SDS011;42456;49.956;20.004;2022-11-14T09:24:16;17.85;;;9.40;;
56567;SDS011;42456;49.956;20.004;2022-11-14T09:26:42;19.17;;;9.55;;
56567;SDS011;42456;49.956;20.004;2022-11-14T09:29:08;20.30;;;9.68;;
56567;SDS011;42456;49.956;20.004;2022-11-14T09:31:35;19.35;;;9.63;;
56567;SDS011;42456;49.956;20.004;2022-11-14T09:34:01;19.07;;;10.43;;
56567;SDS011;42456;49.956;20.004;2022-11-14T09:36:27;18.65;;;9.40;;
56567;SDS011;42456;49.956;20.004;2022-11-14T09:38:53;15.28;;;7.97;;
56567;SDS011;42456;49.956;20.004;2022-11-14T09:41:24;16.85;;;9.00;;
56567;SDS011;42456;49.956;20.004;2022-11-14T09:46:54;18.80;;;9.75;;
56567;SDS011;42456;49.956;20.004;2022-11-14T09:49:38;17.85;;;9.70;;
56567;SDS011;42456;49.956;20.004;2022-11-14T09:54:57;20.20;;;9.73;;
56567;SDS011;42456;49.956;20.004;2022-11-14T09:57:36;17.90;;;10.05;;
56567;SDS011;42456;49.956;20.004;2022-11-14T10:00:19;19.17;;;10.13;;
56567;SDS011;42456;49.956;20.004;2022-11-14T10:17:01;20.23;;;10.10;;
56567;SDS011;42456;49.956;20.004;2022-11-14T10:19:37;18.40;;;10.08;;
56567;SDS011;42456;49.956;20.004;2022-11-14T10:25:17;18.50;;;9.88;;
56567;SDS011;42456;49.956;20.004;2022-11-14T10:39:30;18.30;;;9.75;;
56567;SDS011;42456;49.956;20.004;2022-11-14T10:47:56;17.82;;;9.88;;
56567;SDS011;42456;49.956;20.004;2022-11-14T10:50:32;19.73;;;10.53;;
56567;SDS011;42456;49.956;20.004;2022-11-14T10:53:22;17.40;;;9.55;;
56567;SDS011;42456;49.956;20.004;2022-11-14T10:55:51;21.97;;;10.85;;
56567;SDS011;42456;49.956;20.004;2022-11-14T10:58:19;22.40;;;11.40;;
56567;SDS011;42456;49.956;20.004;2022-11-14T11:00:46;21.80;;;11.70;;
56567;SDS011;42456;49.956;20.004;2022-11-14T11:03:12;24.47;;;11.93;;
56567;SDS011;42456;49.956;20.004;2022-11-14T11:05:48;20.62;;;10.58;;
56567;SDS011;42456;49.956;20.004;2022-11-14T11:08:19;19.98;;;10.35;;
56567;SDS011;42456;49.956;20.004;2022-11-14T11:10:56;18.00;;;9.68;;
56567;SDS011;42456;49.956;20.004;2022-11-14T11:13:45;22.85;;;11.70;;
56567;SDS011;42456;49.956;20.004;2022-11-14T11:16:14;21.12;;;11.30;;
56567;SDS011;42456;49.956;20.004;2022-11-14T11:18:45;20.70;;;10.55;;
56567;SDS011;42456;49.956;20.004;2022-11-14T11:21:12;21.90;;;12.03;;
56567;SDS011;42456;49.956;20.004;2022-11-14T11:26:25;21.87;;;11.15;;
56567;SDS011;42456;49.956;20.004;2022-11-14T11:34:24;24.07;;;12.37;;
56567;SDS011;42456;49.956;20.004;2022-11-14T11:39:50;20.25;;;10.65;;
56567;SDS011;42456;49.956;20.004;2022-11-14T11:42:24;21.60;;;11.43;;
56567;SDS011;42456;49.956;20.004;2022-11-14T11:44:59;23.10;;;12.55;;
56567;SDS011;42456;49.956;20.004;2022-11-14T11:47:30;21.02;;;11.43;;
56567;SDS011;42456;49.956;20.004;2022-11-14T11:49:59;26.15;;;13.35;;
56567;SDS011;42456;49.956;20.004;2022-11-14T11:55:12;24.60;;;13.75;;
56567;SDS011;42456;49.956;20.004;2022-11-14T11:58:05;29.07;;;14.78;;
56567;SDS011;42456;49.956;20.004;2022-11-14T12:00:36;25.17;;;14.28;;
56567;SDS011;42456;49.956;20.004;2022-11-14T12:03:03;26.73;;;14.70;;
56567;SDS011;42456;49.956;20.004;2022-11-14T12:08:35;29.57;;;13.45;;
56567;SDS011;42456;49.956;20.004;2022-11-14T12:11:04;28.07;;;14.58;;
56567;SDS011;42456;49.956;20.004;2022-11-14T12:24:50;24.60;;;12.78;;
56567;SDS011;42456;49.956;20.004;2022-11-14T12:30:14;29.27;;;14.75;;
56567;SDS011;42456;49.956;20.004;2022-11-14T12:35:37;24.27;;;12.95;;
56567;SDS011;42456;49.956;20.004;2022-11-14T12:38:12;23.87;;;13.05;;
56567;SDS011;42456;49.956;20.004;2022-11-14T12:40:47;25.15;;;12.93;;
56567;SDS011;42456;49.956;20.004;2022-11-14T12:43:27;28.02;;;13.78;;
56567;SDS011;42456;49.956;20.004;2022-11-14T12:46:00;23.87;;;12.35;;
56567;SDS011;42456;49.956;20.004;2022-11-14T12:48:42;22.13;;;11.63;;
56567;SDS011;42456;49.956;20.004;2022-11-14T12:53:54;22.20;;;11.73;;
56567;SDS011;42456;49.956;20.004;2022-11-14T13:10:13;26.17;;;14.63;;
56567;SDS011;42456;49.956;20.004;2022-11-14T13:13:13;25.23;;;13.20;;
56567;SDS011;42456;49.956;20.004;2022-11-14T13:15:58;25.40;;;13.32;;
56567;SDS011;42456;49.956;20.004;2022-11-14T13:27:29;21.68;;;11.88;;
56567;SDS011;42456;49.956;20.004;2022-11-14T13:29:59;22.87;;;11.80;;
56567;SDS011;42456;49.956;20.004;2022-11-14T13:35:14;20.97;;;11.15;;
56567;SDS011;42456;49.956;20.004;2022-11-14T13:52:20;25.80;;;13.80;;
56567;SDS011;42456;49.956;20.004;2022-11-14T13:54:51;27.00;;;13.85;;
56567;SDS011;42456;49.956;20.004;2022-11-14T14:00:07;21.12;;;11.05;;
56567;SDS011;42456;49.956;20.004;2022-11-14T14:14:01;24.55;;;13.80;;
56567;SDS011;42456;49.956;20.004;2022-11-14T14:22:21;21.52;;;9.95;;
56567;SDS011;42456;49.956;20.004;2022-11-14T14:24:48;22.25;;;11.83;;
56567;SDS011;42456;49.956;20.004;2022-11-14T14:27:24;24.47;;;13.38;;
56567;SDS011;42456;49.956;20.004;2022-11-14T14:30:13;16.60;;;9.10;;
56567;SDS011;42456;49.956;20.004;2022-11-14T14:32:37;24.02;;;13.13;;
56567;SDS011;42456;49.956;20.004;2022-11-14T14:37:50;26.50;;;14.53;;
56567;SDS011;42456;49.956;20.004;2022-11-14T14:43:00;22.20;;;12.30;;
56567;SDS011;42456;49.956;20.004;2022-11-14T14:45:43;21.87;;;11.93;;
56567;SDS011;42456;49.956;20.004;2022-11-14T14:48:02;20.08;;;10.85;;
56567;SDS011;42456;49.956;20.004;2022-11-14T14:50:40;25.02;;;12.43;;
56567;SDS011;42456;49.956;20.004;2022-11-14T14:53:19;23.70;;;12.15;;
56567;SDS011;42456;49.956;20.004;2022-11-14T14:55:53;18.00;;;9.50;;
56567;SDS011;42456;49.956;20.004;2022-11-14T14:58:43;23.98;;;12.78;;
56567;SDS011;42456;49.956;20.004;2022-11-14T15:03:46;22.48;;;12.43;;
56567;SDS011;42456;49.956;20.004;2022-11-14T15:06:27;22.42;;;11.43;;
56567;SDS011;42456;49.956;20.004;2022-11-14T15:11:45;21.52;;;12.03;;
56567;SDS011;42456;49.956;20.004;2022-11-14T15:14:16;27.27;;;12.43;;
56567;SDS011;42456;49.956;20.004;2022-11-14T15:16:47;20.95;;;11.28;;
56567;SDS011;42456;49.956;20.004;2022-11-14T15:19:19;24.85;;;13.18;;
56567;SDS011;42456;49.956;20.004;2022-11-14T15:21:49;23.38;;;13.15;;
56567;SDS011;42456;49.956;20.004;2022-11-14T15:24:27;21.57;;;12.03;;
56567;SDS011;42456;49.956;20.004;2022-11-14T15:26:53;22.48;;;12.35;;
56567;SDS011;42456;49.956;20.004;2022-11-14T15:29:23;21.60;;;11.88;;
56567;SDS011;42456;49.956;20.004;2022-11-14T15:31:53;22.93;;;11.00;;
56567;SDS011;42456;49.956;20.004;2022-11-14T15:34:30;27.73;;;14.23;;
56567;SDS011;42456;49.956;20.004;2022-11-14T15:37:07;22.00;;;12.23;;
56567;SDS011;42456;49.956;20.004;2022-11-14T15:39:43;23.00;;;12.40;;
56567;SDS011;42456;49.956;20.004;2022-11-14T15:42:15;25.62;;;14.03;;
56567;SDS011;42456;49.956;20.004;2022-11-14T15:44:53;25.02;;;12.95;;
56567;SDS011;42456;49.956;20.004;2022-11-14T15:47:24;25.82;;;13.38;;
56567;SDS011;42456;49.956;20.004;2022-11-14T15:52:36;25.80;;;13.00;;
56567;SDS011;42456;49.956;20.004;2022-11-14T15:55:01;26.87;;;14.15;;
56567;SDS011;42456;49.956;20.004;2022-11-14T15:57:31;24.35;;;12.93;;
56567;SDS011;42456;49.956;20.004;2022-11-14T15:59:59;23.12;;;12.73;;
56567;SDS011;42456;49.956;20.004;2022-11-14T16:02:29;24.80;;;13.25;;
56567;SDS011;42456;49.956;20.004;2022-11-14T16:04:58;30.30;;;15.83;;
56567;SDS011;42456;49.956;20.004;2022-11-14T16:09:54;27.20;;;14.35;;
56567;SDS011;42456;49.956;20.004;2022-11-14T16:12:20;26.87;;;13.38;;
56567;SDS011;42456;49.956;20.004;2022-11-14T16:14:47;29.18;;;15.10;;
56567;SDS011;42456;49.956;20.004;2022-11-14T16:17:13;26.82;;;13.65;;
56567;SDS011;42456;49.956;20.004;2022-11-14T16:19:42;32.17;;;16.60;;
56567;SDS011;42456;49.956;20.004;2022-11-14T16:22:09;29.48;;;15.30;;
56567;SDS011;42456;49.956;20.004;2022-11-14T16:24:38;29.87;;;15.28;;
56567;SDS011;42456;49.956;20.004;2022-11-14T16:27:04;30.75;;;15.68;;
56567;SDS011;42456;49.956;20.004;2022-11-14T16:29:31;33.63;;;17.27;;
56567;SDS011;42456;49.956;20.004;2022-11-14T16:31:57;29.83;;;15.30;;
56567;SDS011;42456;49.956;20.004;2022-11-14T16:34:24;29.03;;;15.10;;
56567;SDS011;42456;49.956;20.004;2022-11-14T16:36:58;26.10;;;13.40;;
56567;SDS011;42456;49.956;20.004;2022-11-14T16:39:26;26.12;;;14.20;;
56567;SDS011;42456;49.956;20.004;2022-11-14T16:41:57;26.65;;;13.98;;
56567;SDS011;42456;49.956;20.004;2022-11-14T16:44:26;27.40;;;13.93;;
56567;SDS011;42456;49.956;20.004;2022-11-14T16:46:53;29.30;;;15.65;;
56567;SDS011;42456;49.956;20.004;2022-11-14T16:49:20;29.32;;;15.55;;
56567;SDS011;42456;49.956;20.004;2022-11-14T16:51:47;26.00;;;13.28;;
56567;SDS011;42456;49.956;20.004;2022-11-14T16:54:15;27.55;;;15.90;;
56567;SDS011;42456;49.956;20.004;2022-11-14T16:56:43;29.48;;;14.90;;
56567;SDS011;42456;49.956;20.004;2022-11-14T16:59:13;28.45;;;14.30;;
56567;SDS011;42456;49.956;20.004;2022-11-14T17:01:39;29.75;;;15.23;;